Time;durP1;ratioP1;P1;durP2;ratioP2;P2;SDS_P1;SDS_P2;PMS_P1;PMS_P2;Temp;Humidity;BMP_temperature;BMP_pressure;BME280_temperature;BME280_humidity;BME280_pressure;Samples;Min_cycle;Max_cycle;Signal;HPM_P1;HPM_P2
2020/12/05 00:00:44;;;;;;;30.00;19.70;;;;;;;4.36;67.64;98605.94;5085318;28;20027;-74
2020/12/05 00:03:09;;;;;;;27.63;18.15;;;;;;;4.29;67.46;98583.38;5083768;28;20043;-74
2020/12/05 00:05:34;;;;;;;27.65;19.13;;;;;;;4.23;67.73;98586.06;5081835;28;20032;-74
2020/12/05 00:08:00;;;;;;;27.52;18.23;;;;;;;4.18;67.88;98606.16;5081761;28;20039;-74
2020/12/05 00:10:26;;;;;;;27.27;16.13;;;;;;;4.11;67.67;98600.16;5073530;28;20036;-74
2020/12/05 00:12:51;;;;;;;28.45;18.70;;;;;;;4.04;68.30;98598.47;5081187;28;20063;-74
2020/12/05 00:15:16;;;;;;;29.73;17.90;;;;;;;3.97;68.02;98591.59;5083920;28;20032;-74
2020/12/05 00:17:42;;;;;;;26.27;17.67;;;;;;;3.89;68.47;98586.44;5085156;28;20173;-73
2020/12/05 00:20:07;;;;;;;27.73;17.83;;;;;;;3.86;68.71;98576.03;5083803;28;20040;-74
2020/12/05 00:22:32;;;;;;;28.33;17.45;;;;;;;3.84;68.70;98567.38;5081192;28;20123;-74
2020/12/05 00:24:58;;;;;;;25.23;17.35;;;;;;;3.82;68.93;98552.59;5081419;28;20085;-74
2020/12/05 00:27:23;;;;;;;26.80;17.98;;;;;;;3.84;68.92;98546.47;5084552;28;20028;-74
2020/12/05 00:29:48;;;;;;;26.95;18.48;;;;;;;3.86;69.05;98547.34;5084746;28;20032;-73
2020/12/05 00:32:14;;;;;;;29.67;18.67;;;;;;;3.90;68.50;98563.81;5082453;28;20074;-74
2020/12/05 00:34:39;;;;;;;26.08;16.67;;;;;;;3.94;68.89;98574.22;5080642;28;20039;-73
2020/12/05 00:37:04;;;;;;;27.10;16.80;;;;;;;3.99;68.49;98579.41;5081074;28;20044;-74
2020/12/05 00:39:30;;;;;;;24.25;16.80;;;;;;;4.02;68.60;98591.53;5084489;28;20040;-74
2020/12/05 00:41:55;;;;;;;33.95;21.02;;;;;;;3.99;68.94;98575.94;5084289;28;20036;-74
2020/12/05 00:44:20;;;;;;;29.52;19.67;;;;;;;3.98;68.62;98575.03;5080165;28;20124;-74
2020/12/05 00:46:46;;;;;;;28.30;18.33;;;;;;;3.98;68.74;98579.41;5080945;28;20028;-73
2020/12/05 00:49:11;;;;;;;27.52;18.23;;;;;;;3.96;68.59;98576.81;5081072;28;20040;-74
2020/12/05 00:51:37;;;;;;;29.60;18.25;;;;;;;3.94;68.80;98574.22;5083094;28;20085;-74
2020/12/05 00:54:02;;;;;;;29.70;18.33;;;;;;;3.89;68.92;98586.44;5083832;28;20039;-74
2020/12/05 00:56:28;;;;;;;24.23;16.70;;;;;;;3.88;69.00;98589.09;5079483;28;20119;-73
2020/12/05 00:58:53;;;;;;;25.50;16.10;;;;;;;3.86;69.06;98580.41;5080725;28;20550;-73
2020/12/05 01:01:19;;;;;;;26.75;17.90;;;;;;;3.84;69.24;98572.56;5083239;28;20040;-74
2020/12/05 01:03:44;;;;;;;27.38;16.55;;;;;;;3.80;69.28;98578.72;5083740;28;20498;-74
2020/12/05 01:06:11;;;;;;;25.90;17.48;;;;;;;3.74;69.17;98576.16;5082678;28;20636;-73
2020/12/05 01:08:40;;;;;;;28.92;17.65;;;;;;;3.68;69.23;98582.31;5080549;28;20044;-74
2020/12/05 01:11:09;;;;;;;24.88;17.15;;;;;;;3.63;69.58;98580.63;5081074;28;20044;-73
2020/12/05 01:13:34;;;;;;;27.30;17.13;;;;;;;3.57;69.79;98578.94;5083802;28;20067;-74
2020/12/05 01:15:59;;;;;;;28.20;18.75;;;;;;;3.56;69.74;98582.41;5083948;28;20063;-74
2020/12/05 01:18:24;;;;;;;27.45;17.58;;;;;;;3.53;69.76;98587.66;5080385;28;20056;-73
2020/12/05 01:20:50;;;;;;;25.80;17.10;;;;;;;3.52;69.75;98580.72;5080235;28;20466;-73
2020/12/05 01:23:15;;;;;;;29.90;17.85;;;;;;;3.55;69.81;98579.84;5081833;28;20502;-74
2020/12/05 01:25:40;;;;;;;28.17;17.10;;;;;;;3.61;69.90;98583.22;5083650;28;20078;-74
2020/12/05 01:28:06;;;;;;;24.17;17.02;;;;;;;3.70;70.12;98579.69;5082869;28;20066;-73
2020/12/05 01:30:31;;;;;;;26.25;16.10;;;;;;;3.78;69.94;98577.88;5080075;28;20067;-74
2020/12/05 01:32:56;;;;;;;25.92;17.27;;;;;;;3.83;69.55;98578.69;5079796;28;20067;-74
2020/12/05 01:35:22;;;;;;;23.95;15.85;;;;;;;3.92;69.19;98582.94;5083062;28;20067;-74
2020/12/05 01:37:47;;;;;;;26.10;17.50;;;;;;;3.97;69.29;98573.31;5083326;28;20052;-74
2020/12/05 01:40:12;;;;;;;29.98;19.40;;;;;;;4.03;69.15;98582.81;5081627;28;20048;-73
2020/12/05 01:42:39;;;;;;;24.10;16.23;;;;;;;4.07;68.88;98584.53;5079794;28;20047;-73
2020/12/05 01:45:04;;;;;;;21.80;14.88;;;;;;;4.10;68.67;98587.97;5080520;28;20040;-73
2020/12/05 01:47:30;;;;;;;23.98;14.45;;;;;;;4.20;68.42;98590.47;5083041;28;20035;-74
2020/12/05 01:49:56;;;;;;;23.95;16.15;;;;;;;4.25;68.12;98576.50;5081652;28;20062;-74
2020/12/05 01:52:22;;;;;;;27.40;17.15;;;;;;;4.24;68.02;98582.56;5088084;28;20071;-74
2020/12/05 01:54:47;;;;;;;26.83;16.67;;;;;;;4.24;67.87;98581.72;5079719;28;20036;-73
2020/12/05 01:57:13;;;;;;;25.95;15.93;;;;;;;4.26;68.12;98579.94;5081495;28;20040;-73
2020/12/05 01:59:38;;;;;;;27.17;17.88;;;;;;;4.29;67.88;98574.69;5083208;28;20114;-73
2020/12/05 02:02:05;;;;;;;25.20;17.40;;;;;;;4.34;67.91;98578.97;5078759;28;20449;-74
2020/12/05 02:04:35;;;;;;;25.15;17.23;;;;;;;4.38;67.92;98579.81;5075912;28;20503;-74
2020/12/05 02:07:11;;;;;;;23.70;14.88;;;;;;;4.38;67.58;98585.03;5081989;28;20493;-73
2020/12/05 02:09:48;;;;;;;24.00;16.48;;;;;;;4.38;67.91;98578.06;5072826;28;20093;-73
2020/12/05 02:12:21;;;;;;;25.40;16.77;;;;;;;4.40;67.90;98578.03;5081077;28;20033;-74
2020/12/05 02:14:49;;;;;;;26.58;16.40;;;;;;;4.41;67.94;98573.69;5082986;28;20032;-73
2020/12/05 02:17:15;;;;;;;23.38;15.23;;;;;;;4.44;67.75;98574.50;5080902;28;20059;-73
2020/12/05 02:19:50;;;;;;;22.67;15.02;;;;;;;4.48;67.38;98585.75;5079460;28;20502;-73
2020/12/05 02:22:27;;;;;;;22.48;14.95;;;;;;;4.51;67.34;98593.59;5081108;28;20040;-73
2020/12/05 02:24:53;;;;;;;26.38;16.98;;;;;;;4.51;67.88;98590.97;5082968;28;20074;-73
2020/12/05 02:27:20;;;;;;;23.92;16.70;;;;;;;4.50;67.65;98587.47;5080247;28;20055;-73
2020/12/05 02:29:45;;;;;;;23.08;15.98;;;;;;;4.47;67.82;98589.28;5079333;28;20032;-73
2020/12/05 02:32:11;;;;;;;24.63;16.17;;;;;;;4.46;67.50;98582.34;5080458;28;20399;-73
2020/12/05 02:34:36;;;;;;;24.25;15.82;;;;;;;4.45;67.74;98581.44;5081574;28;20119;-73
2020/12/05 02:37:08;;;;;;;23.77;13.75;;;;;;;4.45;67.88;98575.38;5082479;28;20041;-73
2020/12/05 02:39:35;;;;;;;25.17;15.68;;;;;;;4.44;67.83;98597.16;5079090;28;20471;-73
2020/12/05 02:42:01;;;;;;;23.98;15.23;;;;;;;4.48;67.40;98596.22;5079025;28;20044;-74
2020/12/05 02:44:26;;;;;;;25.60;15.07;;;;;;;4.53;67.33;98582.25;5070899;28;20124;-74
2020/12/05 02:46:54;;;;;;;27.70;17.25;;;;;;;4.62;67.85;98594.31;5079164;28;20044;-74
2020/12/05 02:49:20;;;;;;;22.98;14.45;;;;;;;4.68;67.48;98578.53;5081796;28;20123;-73
2020/12/05 02:51:45;;;;;;;23.80;15.05;;;;;;;4.73;67.03;98566.28;5082566;28;20127;-74
2020/12/05 02:54:10;;;;;;;26.40;16.35;;;;;;;4.79;67.26;98545.28;5081226;28;20112;-74
2020/12/05 02:56:36;;;;;;;21.95;14.52;;;;;;;4.84;66.58;98553.91;5079115;28;20036;-74
2020/12/05 02:59:01;;;;;;;23.33;16.45;;;;;;;4.91;67.28;98570.38;5080529;28;20074;-74
2020/12/05 03:01:26;;;;;;;24.95;14.88;;;;;;;4.95;66.49;98594.72;5086352;28;20089;-74
2020/12/05 03:03:52;;;;;;;24.35;15.20;;;;;;;4.95;66.74;98572.06;5086142;28;20047;-74
2020/12/05 03:06:17;;;;;;;23.52;14.00;;;;;;;4.93;66.84;98558.16;5066164;28;20035;-73
2020/12/05 03:08:42;;;;;;;25.67;14.90;;;;;;;4.91;66.94;98562.53;5082808;28;20086;-74
2020/12/05 03:11:08;;;;;;;24.02;14.55;;;;;;;4.91;66.93;98562.53;5083783;28;20131;-74
2020/12/05 03:13:33;;;;;;;23.80;14.57;;;;;;;4.90;67.01;98549.47;5086168;28;20038;-73
2020/12/05 03:15:58;;;;;;;23.00;15.45;;;;;;;4.90;67.24;98552.09;5086300;28;20036;-74
2020/12/05 03:18:24;;;;;;;24.30;15.45;;;;;;;4.87;67.01;98555.59;5082944;28;20033;-73
2020/12/05 03:20:49;;;;;;;24.95;16.85;;;;;;;4.88;67.00;98528.59;5082690;28;20042;-74
2020/12/05 03:23:14;;;;;;;23.35;15.57;;;;;;;4.88;66.81;98525.13;5084187;28;20051;-74
2020/12/05 03:25:40;;;;;;;24.58;16.50;;;;;;;4.92;67.16;98521.56;5086025;28;20044;-74
2020/12/05 03:28:05;;;;;;;21.88;13.98;;;;;;;4.89;67.40;98483.28;5085337;28;20036;-74
2020/12/05 03:30:31;;;;;;;20.52;13.90;;;;;;;4.80;67.44;98472.97;5082370;28;20047;-74
2020/12/05 03:32:56;;;;;;;23.60;15.85;;;;;;;4.76;67.38;98455.59;5082205;28;20032;-74
2020/12/05 03:35:25;;;;;;;25.13;15.88;;;;;;;4.69;67.64;98444.41;5085342;28;20458;-74
2020/12/05 03:37:51;;;;;;;22.58;14.90;;;;;;;4.68;67.92;98452.25;5085710;28;20036;-74
2020/12/05 03:40:16;;;;;;;23.00;14.20;;;;;;;4.66;67.70;98435.72;5083446;28;20093;-74
2020/12/05 03:42:42;;;;;;;22.50;14.82;;;;;;;4.62;67.70;98424.47;5082943;28;20040;-74
2020/12/05 03:45:07;;;;;;;19.48;13.65;;;;;;;4.63;68.06;98426.19;5084807;28;20376;-74
2020/12/05 03:47:32;;;;;;;19.15;12.63;;;;;;;4.65;67.71;98442.72;5082171;28;20548;-74
2020/12/05 03:49:58;;;;;;;19.13;12.77;;;;;;;4.66;67.89;98470.56;5082167;28;20032;-74
2020/12/05 03:52:23;;;;;;;20.38;12.77;;;;;;;4.68;67.78;98471.41;5084693;28;20390;-74
2020/12/05 03:54:48;;;;;;;21.10;13.18;;;;;;;4.68;68.04;98458.34;5085329;28;20047;-74
2020/12/05 03:57:14;;;;;;;20.15;13.95;;;;;;;4.68;67.90;98453.09;5083669;28;20097;-74
2020/12/05 03:59:39;;;;;;;17.65;12.30;;;;;;;4.71;68.36;98470.50;5081939;28;20044;-74
2020/12/05 04:02:05;;;;;;;17.85;12.20;;;;;;;4.72;67.87;98475.72;5082244;28;20032;-74
2020/12/05 04:04:30;;;;;;;19.73;12.57;;;;;;;4.73;68.12;98474.81;5085377;28;20615;-74
2020/12/05 04:06:56;;;;;;;20.85;13.27;;;;;;;4.72;68.43;98453.94;5085354;28;20533;-74
2020/12/05 04:09:21;;;;;;;18.55;11.90;;;;;;;4.73;68.03;98439.97;5082023;28;20047;-74
2020/12/05 04:11:46;;;;;;;18.42;12.73;;;;;;;4.73;68.26;98426.91;5081749;28;20024;-74
2020/12/05 04:14:12;;;;;;;16.50;11.70;;;;;;;4.75;68.33;98433.84;5083079;28;20101;-74
2020/12/05 04:16:37;;;;;;;18.83;12.13;;;;;;;4.78;68.04;98446.84;5085197;28;20465;-74
2020/12/05 04:19:04;;;;;;;18.10;12.50;;;;;;;4.79;68.13;98448.59;5084730;28;20078;-75
2020/12/05 04:21:29;;;;;;;20.50;13.30;;;;;;;4.78;68.06;98462.53;5078005;28;20115;-74
2020/12/05 04:23:54;;;;;;;18.05;11.40;;;;;;;4.78;67.78;98473.00;5090720;28;20483;-75
2020/12/05 04:26:21;;;;;;;19.65;13.15;;;;;;;4.73;68.29;98474.81;5082284;28;20963;-74
2020/12/05 04:28:47;;;;;;;23.58;15.00;;;;;;;4.71;68.42;98468.72;5081338;28;20062;-74
2020/12/05 04:31:12;;;;;;;24.65;14.82;;;;;;;4.69;68.23;98485.31;5082767;28;20033;-74
2020/12/05 04:33:37;;;;;;;19.75;12.40;;;;;;;4.61;68.86;98507.22;5084629;28;20028;-74
2020/12/05 04:36:06;;;;;;;19.70;12.52;;;;;;;4.60;68.50;98507.22;5084311;28;20490;-74
2020/12/05 04:38:31;;;;;;;19.63;14.00;;;;;;;4.61;69.04;98468.03;5081084;28;20495;-74
2020/12/05 04:40:58;;;;;;;24.40;16.52;;;;;;;4.64;68.93;98459.28;5081129;28;20040;-74
2020/12/05 04:43:24;;;;;;;23.65;13.10;;;;;;;4.62;68.81;98468.88;5083798;28;20043;-74
2020/12/05 04:45:50;;;;;;;20.40;13.43;;;;;;;4.60;68.97;98481.97;5084524;28;20047;-74
2020/12/05 04:48:16;;;;;;;19.05;12.25;;;;;;;4.64;68.69;98490.63;5082603;28;20413;-74
2020/12/05 04:50:44;;;;;;;17.13;11.27;;;;;;;4.71;68.76;98484.41;5080798;28;20041;-74
2020/12/05 04:53:12;;;;;;;20.45;12.13;;;;;;;4.76;68.88;98487.81;5081984;28;20431;-74
2020/12/05 04:55:42;;;;;;;18.58;11.82;;;;;;;4.78;68.34;98475.59;5084454;28;20478;-74
2020/12/05 04:58:16;;;;;;;16.00;10.57;;;;;;;4.73;69.02;98456.50;5083335;28;20050;-74
2020/12/05 05:00:43;;;;;;;20.65;12.18;;;;;;;4.76;68.92;98446.00;5080777;28;20044;-74
2020/12/05 05:03:10;;;;;;;18.38;12.20;;;;;;;4.69;68.75;98439.19;5081393;28;20478;-74
2020/12/05 05:05:36;;;;;;;19.08;13.25;;;;;;;4.65;69.22;98441.84;5084162;28;20036;-74
2020/12/05 05:08:01;;;;;;;16.88;10.88;;;;;;;4.70;69.27;98461.78;5083153;28;20115;-75
2020/12/05 05:10:29;;;;;;;18.10;12.00;;;;;;;4.71;68.76;98484.41;5075772;28;20042;-75
2020/12/05 05:13:05;;;;;;;13.90;10.25;;;;;;;4.70;69.05;98514.06;5088504;28;20036;-74
2020/12/05 05:15:31;;;;;;;15.77;10.57;;;;;;;4.71;69.19;98521.00;5068436;28;20092;-75
2020/12/05 05:17:59;;;;;;;16.98;11.00;;;;;;;4.77;68.97;98518.31;5090138;28;20375;-77
2020/12/05 05:20:25;;;;;;;14.82;9.93;;;;;;;4.83;69.34;98515.59;5075257;28;20118;-75
2020/12/05 05:23:06;;;;;;;17.58;10.52;;;;;;;4.88;69.21;98512.91;5083179;28;20047;-75
2020/12/05 05:25:47;;;;;;;16.13;10.93;;;;;;;4.89;68.92;98514.63;5072851;28;20098;-75
2020/12/05 05:28:17;;;;;;;16.40;10.35;;;;;;;4.94;69.18;98522.41;5081786;28;20070;-75
2020/12/05 05:33:49;;;;;;;13.90;9.63;;;;;;;5.05;69.21;98541.41;5074538;28;20047;-75
2020/12/05 05:36:17;;;;;;;16.73;10.38;;;;;;;5.13;68.73;98546.50;5081848;28;20037;-75
2020/12/05 05:38:43;;;;;;;13.10;9.68;;;;;;;5.22;68.13;98564.69;5083420;28;20046;-76
2020/12/05 05:41:18;;;;;;;15.60;10.10;;;;;;;5.29;67.58;98566.28;5082401;28;20040;-76
2020/12/05 05:44:01;;;;;;;15.63;9.75;;;;;;;5.34;67.89;98568.84;5077196;28;20486;-75
2020/12/05 05:46:32;;;;;;;13.48;9.20;;;;;;;5.40;67.93;98584.44;5072820;28;20132;-74
2020/12/05 05:48:59;;;;;;;13.77;10.15;;;;;;;5.47;67.58;98604.38;5081594;28;20055;-74
2020/12/05 05:51:43;;;;;;;15.23;9.18;;;;;;;5.55;66.91;98615.56;5083025;28;20031;-74
2020/12/05 05:54:34;;;;;;;14.32;9.45;;;;;;;5.64;67.01;98625.91;5082140;28;20035;-75
2020/12/05 05:57:11;;;;;;;15.73;9.90;;;;;;;5.70;66.48;98631.03;5072169;28;20040;-75
2020/12/05 05:59:43;;;;;;;14.65;8.93;;;;;;;5.75;66.60;98644.03;5057554;28;20028;-75
2020/12/05 06:02:13;;;;;;;14.00;9.52;;;;;;;5.78;66.54;98637.88;5085822;28;20054;-75
2020/12/05 06:04:41;;;;;;;13.57;9.40;;;;;;;5.72;66.32;98649.31;5083154;28;20423;-74
2020/12/05 06:07:08;;;;;;;13.48;8.65;;;;;;;5.76;66.47;98648.38;5082328;28;20035;-74
2020/12/05 06:12:21;;;;;;;13.95;8.80;;;;;;;5.80;66.43;98651.81;5020745;28;20132;-70
2020/12/05 06:14:47;;;;;;;14.57;9.43;;;;;;;5.83;66.84;98657.00;5023364;28;20037;-69
2020/12/05 06:17:13;;;;;;;13.88;9.43;;;;;;;5.87;66.65;98645.59;5021754;28;20068;-70
2020/12/05 06:19:41;;;;;;;13.05;8.32;;;;;;;5.88;66.16;98642.94;5019864;28;20038;-69
2020/12/05 06:22:34;;;;;;;12.70;8.02;;;;;;;5.89;66.17;98652.53;5040113;28;20040;-70
2020/12/05 06:25:10;;;;;;;15.38;9.20;;;;;;;5.89;66.21;98657.78;5043221;28;20075;-70
2020/12/05 06:27:36;;;;;;;13.43;8.23;;;;;;;5.92;66.66;98657.72;5039604;28;20049;-70
2020/12/05 06:30:06;;;;;;;13.02;8.48;;;;;;;5.88;66.29;98661.25;5039438;28;20120;-69
2020/12/05 06:32:42;;;;;;;12.20;8.20;;;;;;;5.91;66.34;98663.81;5043274;28;20029;-69
2020/12/05 06:35:23;;;;;;;12.90;9.02;;;;;;;5.95;66.41;98692.59;5046209;28;20538;-70
2020/12/05 06:37:55;;;;;;;15.10;9.55;;;;;;;5.96;66.25;98705.69;5043618;28;20120;-69
2020/12/05 06:40:21;;;;;;;;;;;;;;;5.91;66.67;98721.44;5046552;28;20088;-70
2020/12/05 06:42:49;;;;;;;15.52;9.10;;;;;;;5.95;67.02;98719.66;5046687;28;19917;-70
2020/12/05 06:45:26;;;;;;;13.27;8.88;;;;;;;5.96;66.77;98716.16;5045106;28;20065;-70
2020/12/05 06:48:14;;;;;;;13.88;9.07;;;;;;;6.00;66.72;98712.59;5043458;28;20037;-69
2020/12/05 06:50:42;;;;;;;14.30;9.43;;;;;;;6.01;67.05;98710.84;5041413;28;20069;-70
2020/12/05 06:53:19;;;;;;;13.55;8.85;;;;;;;6.02;66.63;98700.31;5046218;28;20032;-70
2020/12/05 06:55:44;;;;;;;12.40;8.13;;;;;;;6.05;66.64;98705.53;5037667;28;20049;-70
2020/12/05 06:58:10;;;;;;;14.98;10.20;;;;;;;6.05;66.62;98705.53;5057244;28;20039;-69
2020/12/05 07:00:37;;;;;;;11.82;8.20;;;;;;;6.10;66.73;98702.81;5046546;28;20037;-69
2020/12/05 07:03:08;;;;;;;11.75;8.70;;;;;;;6.13;66.95;98714.13;5046138;28;20510;-69
2020/12/05 07:05:39;;;;;;;12.70;8.30;;;;;;;6.11;66.68;98731.63;5046387;28;20078;-69
2020/12/05 07:08:32;;;;;;;13.35;8.60;;;;;;;6.06;66.61;98727.34;5044082;28;20088;-69
2020/12/05 07:11:10;;;;;;;11.90;8.45;;;;;;;6.05;66.82;98731.72;5046346;28;20041;-69
2020/12/05 07:13:46;;;;;;;13.10;8.77;;;;;;;6.00;66.45;98738.78;5042821;28;20416;-69
2020/12/05 07:16:22;;;;;;;14.82;9.30;;;;;;;5.97;67.33;98733.59;5044372;28;20444;-70
2020/12/05 07:18:56;;;;;;;13.35;8.57;;;;;;;5.92;67.03;98741.50;5046193;28;20051;-69
2020/12/05 07:21:24;;;;;;;16.00;9.60;;;;;;;5.88;67.07;98755.50;5043495;28;20132;-69
2020/12/05 07:23:49;;;;;;;13.85;9.05;;;;;;;5.85;67.47;98760.81;5042511;28;20072;-69
2020/12/05 07:26:15;;;;;;;13.88;9.35;;;;;;;5.88;67.20;98759.91;5044702;28;20112;-69
2020/12/05 07:28:45;;;;;;;12.77;8.77;;;;;;;5.83;67.03;98762.56;5046120;28;20036;-69
2020/12/05 07:31:10;;;;;;;13.48;9.43;;;;;;;5.83;67.24;98793.13;5044671;28;20044;-69
2020/12/05 07:33:36;;;;;;;13.68;8.57;;;;;;;5.82;67.16;98822.84;5037468;28;20029;-70
2020/12/05 07:36:05;;;;;;;13.40;9.50;;;;;;;5.71;67.46;98849.13;5043188;28;20030;-69
2020/12/05 07:38:32;;;;;;;12.50;8.80;;;;;;;5.68;67.33;98864.88;5045770;28;20055;-69
2020/12/05 07:41:06;;;;;;;15.45;10.65;;;;;;;5.61;67.46;98866.72;5045731;28;20077;-69
2020/12/05 07:43:32;;;;;;;16.10;10.93;;;;;;;5.64;67.82;98860.59;5041951;28;20561;-69
2020/12/05 07:46:02;;;;;;;15.85;10.38;;;;;;;5.65;67.87;98872.78;5041717;28;20037;-69
2020/12/05 07:48:28;;;;;;;15.35;10.45;;;;;;;5.66;67.99;98872.78;5042217;28;20037;-69
2020/12/05 07:50:53;;;;;;;14.00;9.73;;;;;;;5.68;67.74;98889.28;5042105;28;20641;-69
2020/12/05 07:53:23;;;;;;;15.02;10.55;;;;;;;5.73;67.90;98897.09;5043992;28;20503;-68
2020/12/05 07:55:48;;;;;;;15.52;10.80;;;;;;;5.77;67.39;98890.09;5047181;28;20417;-69
2020/12/05 07:58:14;;;;;;;12.90;9.18;;;;;;;5.71;67.56;98910.22;5043783;28;20037;-69
2020/12/05 08:00:39;;;;;;;17.55;10.73;;;;;;;5.75;67.61;98904.94;5041443;28;20033;-69
2020/12/05 08:03:34;;;;;;;15.95;10.77;;;;;;;5.76;67.62;98888.34;5040247;28;20055;-69
2020/12/05 08:06:39;;;;;;;13.70;9.90;;;;;;;5.74;67.57;98898.84;5056028;28;20052;-69
2020/12/05 08:09:05;;;;;;;15.30;9.52;;;;;;;5.70;68.00;98897.16;5041076;28;20045;-69
2020/12/05 08:11:39;;;;;;;15.90;9.85;;;;;;;5.69;67.85;98917.22;5045433;28;20052;-69
2020/12/05 08:14:05;;;;;;;14.07;10.05;;;;;;;5.72;67.94;98926.78;5044643;28;20465;-69
2020/12/05 08:16:36;;;;;;;14.70;10.13;;;;;;;5.79;67.88;98930.19;5041790;28;20065;-69
2020/12/05 08:19:01;;;;;;;14.43;10.18;;;;;;;5.88;68.08;98937.94;5041691;28;20485;-70
2020/12/05 08:21:28;;;;;;;15.07;11.15;;;;;;;5.97;67.46;98950.94;5045050;28;20052;-69
2020/12/05 08:24:05;;;;;;;13.98;9.77;;;;;;;6.09;67.20;98940.31;5044808;28;20032;-69
2020/12/05 08:26:30;;;;;;;14.25;10.05;;;;;;;6.30;66.88;98927.78;5041657;28;20533;-69
2020/12/05 08:28:58;;;;;;;14.65;9.50;;;;;;;6.46;66.92;98917.94;5041512;28;20042;-69
2020/12/05 08:31:23;;;;;;;14.13;9.43;;;;;;;6.58;66.00;98931.72;5044313;28;20529;-69
2020/12/05 08:33:50;;;;;;;13.65;9.30;;;;;;;6.62;65.81;98905.47;5044614;28;20037;-68
2020/12/05 08:36:31;;;;;;;13.90;9.00;;;;;;;6.60;66.05;98892.38;5043092;28;20495;-69
2020/12/05 08:39:01;;;;;;;15.75;10.00;;;;;;;6.53;66.46;98891.63;5041430;28;20045;-68
2020/12/05 08:41:27;;;;;;;15.35;10.82;;;;;;;6.50;66.48;98902.16;5044706;28;20106;-68
2020/12/05 08:43:52;;;;;;;15.23;9.45;;;;;;;6.45;66.61;98951.16;5044261;28;20495;-69
2020/12/05 08:46:22;;;;;;;15.27;10.02;;;;;;;6.41;66.49;98994.00;5041138;28;20608;-68
2020/12/05 08:48:50;;;;;;;13.95;9.48;;;;;;;6.41;66.81;99007.09;5041117;28;20076;-69
2020/12/05 08:51:17;;;;;;;14.00;10.20;;;;;;;6.44;66.78;99012.31;5043009;28;20040;-68
2020/12/05 08:53:43;;;;;;;14.10;10.18;;;;;;;6.44;66.11;99022.78;5044257;28;20041;-68
2020/12/05 08:56:18;;;;;;;15.20;11.15;;;;;;;6.47;65.71;99054.22;5042459;28;20037;-68
2020/12/05 08:58:45;;;;;;;16.75;10.85;;;;;;;6.49;65.10;99057.66;5040922;28;20099;-68
2020/12/05 09:01:11;;;;;;;15.48;9.77;;;;;;;6.53;65.19;99058.50;5042018;28;20495;-68
2020/12/05 09:03:37;;;;;;;13.27;9.30;;;;;;;6.45;64.68;99057.75;5044025;28;20040;-68
2020/12/05 09:06:03;;;;;;;14.23;10.13;;;;;;;6.46;65.12;99047.22;5044092;28;20041;-68
2020/12/05 09:08:29;;;;;;;14.38;9.80;;;;;;;6.46;65.11;99047.22;5040846;28;20033;-68
2020/12/05 09:10:54;;;;;;;15.15;10.32;;;;;;;6.47;65.02;99048.09;5040626;28;20046;-68
2020/12/05 09:13:20;;;;;;;14.75;9.25;;;;;;;6.44;64.91;99069.97;5042967;28;20033;-68
2020/12/05 09:16:01;;;;;;;14.68;9.70;;;;;;;6.38;65.16;99069.19;5044090;28;20029;-68
2020/12/05 09:18:26;;;;;;;14.73;10.27;;;;;;;6.33;65.62;99067.47;5040876;28;20046;-68
2020/12/05 09:20:52;;;;;;;15.30;10.85;;;;;;;6.22;65.21;99073.75;5040455;28;20153;-68
2020/12/05 09:23:27;;;;;;;18.10;11.50;;;;;;;6.14;65.04;99076.47;5042298;28;20040;-68
2020/12/05 09:26:04;;;;;;;19.65;13.02;;;;;;;6.01;63.88;99080.97;5043894;28;20098;-68
2020/12/05 09:28:31;;;;;;;31.75;20.35;;;;;;;5.99;64.91;99097.56;5040500;28;20120;-68
2020/12/05 09:30:56;;;;;;;19.17;12.65;;;;;;;5.93;64.81;99116.81;5040297;28;20033;-68
2020/12/05 09:33:21;;;;;;;16.67;11.35;;;;;;;5.87;64.77;99125.59;5042810;28;20123;-68
2020/12/05 09:35:48;;;;;;;19.60;12.82;;;;;;;5.85;64.92;99150.06;5043705;28;20060;-68
2020/12/05 09:38:14;;;;;;;17.55;11.13;;;;;;;5.84;65.23;99172.75;5042044;28;20086;-68
2020/12/05 09:40:39;;;;;;;17.75;11.07;;;;;;;5.87;65.22;99182.34;5040121;28;20488;-68
2020/12/05 09:43:05;;;;;;;17.42;10.85;;;;;;;5.91;65.58;99169.19;5040269;28;20080;-68
2020/12/05 09:45:33;;;;;;;17.10;12.10;;;;;;;5.96;65.86;99144.75;5043663;28;20056;-68
2020/12/05 09:47:58;;;;;;;15.80;11.88;;;;;;;6.05;65.40;99128.94;5043568;28;20045;-68
2020/12/05 09:50:23;;;;;;;14.48;10.63;;;;;;;6.12;65.44;99115.75;5045694;28;20549;-68
2020/12/05 09:52:49;;;;;;;15.55;10.57;;;;;;;6.18;65.45;99148.88;5039686;28;20037;-68
2020/12/05 09:55:14;;;;;;;17.08;10.32;;;;;;;6.22;65.24;99157.59;5041921;28;20108;-68
2020/12/05 09:57:40;;;;;;;14.88;10.07;;;;;;;6.30;65.46;99169.72;5043464;28;20496;-68
2020/12/05 10:00:08;;;;;;;15.48;10.07;;;;;;;6.42;64.64;99176.59;5042753;28;20045;-68
2020/12/05 10:02:35;;;;;;;14.10;10.10;;;;;;;6.58;63.97;99167.66;5039604;28;20400;-68
2020/12/05 10:05:02;;;;;;;17.02;10.48;;;;;;;6.79;63.76;99194.50;5039888;28;20076;-68
2020/12/05 10:07:27;;;;;;;14.88;10.23;;;;;;;6.95;62.75;99201.28;5039541;28;20135;-68
2020/12/05 10:09:52;;;;;;;15.73;10.65;;;;;;;7.17;61.23;99203.63;5039501;28;20064;-68
2020/12/05 10:12:18;;;;;;;15.82;10.43;;;;;;;7.39;59.59;99198.97;5041743;28;20067;-68
2020/12/05 10:14:43;;;;;;;16.55;11.20;;;;;;;7.60;58.92;99206.50;5043088;28;20115;-68
2020/12/05 10:17:08;;;;;;;17.77;11.27;;;;;;;7.82;58.02;99187.78;5042205;28;20076;-68
2020/12/05 10:19:34;;;;;;;16.48;10.63;;;;;;;7.98;57.84;99164.75;5038380;28;20119;-68
2020/12/05 10:21:59;;;;;;;15.43;9.80;;;;;;;8.06;57.81;99147.09;5044664;28;20029;-68
2020/12/05 10:24:24;;;;;;;14.20;10.30;;;;;;;8.15;58.05;99154.81;5046741;28;20036;-68
2020/12/05 10:26:53;;;;;;;15.35;9.90;;;;;;;8.22;58.05;99155.53;5046645;28;20099;-68
2020/12/05 10:29:19;;;;;;;14.70;10.25;;;;;;;8.21;57.28;99154.69;5049024;28;20040;-68
2020/12/05 10:31:46;;;;;;;16.52;10.88;;;;;;;8.17;56.70;99184.53;5039450;28;20041;-68
2020/12/05 10:34:11;;;;;;;16.25;11.35;;;;;;;8.14;56.98;99216.13;5044242;28;20083;-68
2020/12/05 10:36:37;;;;;;;17.58;11.43;;;;;;;8.07;56.86;99210.13;5047540;28;20041;-68
2020/12/05 10:39:03;;;;;;;15.05;11.15;;;;;;;8.07;57.18;99210.13;5034840;28;20033;-68
2020/12/05 10:41:29;;;;;;;16.27;11.23;;;;;;;8.05;57.01;99219.78;5039371;28;20069;-68
2020/12/05 10:43:54;;;;;;;17.25;11.27;;;;;;;8.00;56.82;99231.28;5039121;28;20072;-68
2020/12/05 10:46:19;;;;;;;16.33;11.75;;;;;;;7.94;57.31;99255.91;5041909;28;20084;-68
2020/12/05 10:48:45;;;;;;;17.35;12.77;;;;;;;7.91;56.69;99245.41;5042767;28;20037;-68
2020/12/05 10:51:10;;;;;;;18.33;12.27;;;;;;;7.93;57.04;99255.91;5041551;28;20032;-68
2020/12/05 10:53:35;;;;;;;19.27;12.48;;;;;;;7.95;57.29;99257.63;5039147;28;20037;-68
2020/12/05 10:56:01;;;;;;;15.18;10.95;;;;;;;8.00;56.35;99257.56;5039393;28;20048;-68
2020/12/05 10:58:26;;;;;;;15.57;11.25;;;;;;;8.02;57.06;99269.78;5042615;28;20086;-68
2020/12/05 11:00:51;;;;;;;18.10;12.00;;;;;;;8.04;56.46;99244.34;5042590;28;20037;-68
2020/12/05 11:03:17;;;;;;;18.30;11.80;;;;;;;8.08;57.06;99227.63;5040440;28;20391;-68
2020/12/05 11:05:42;;;;;;;17.45;13.02;;;;;;;8.09;55.72;99234.59;5039153;28;20557;-68
2020/12/05 11:08:07;;;;;;;17.17;11.95;;;;;;;8.16;55.97;99224.88;5040018;28;20029;-68
2020/12/05 11:10:32;;;;;;;16.98;12.65;;;;;;;8.16;55.54;99224.88;5042573;28;20082;-68
2020/12/05 11:12:58;;;;;;;16.60;10.98;;;;;;;8.16;55.94;99240.63;5042289;28;20041;-68
2020/12/05 11:15:23;;;;;;;18.15;11.52;;;;;;;8.20;55.79;99250.22;5039690;28;20100;-68
2020/12/05 11:17:48;;;;;;;19.42;12.32;;;;;;;8.19;55.53;99245.81;5039169;28;20041;-68
2020/12/05 11:20:15;;;;;;;19.08;13.23;;;;;;;8.22;55.77;99253.66;5042180;28;20037;-68
2020/12/05 11:22:41;;;;;;;25.70;16.85;;;;;;;8.22;55.67;99247.53;5046005;28;20036;-68
2020/12/05 11:25:06;;;;;;;23.42;15.27;;;;;;;8.27;55.30;99256.22;5045856;28;20082;-69
2020/12/05 11:27:31;;;;;;;26.15;16.17;;;;;;;8.33;55.68;99250.84;5042795;28;20033;-68
2020/12/05 11:29:57;;;;;;;20.60;13.77;;;;;;;8.30;53.13;99261.41;5042580;28;20385;-68
2020/12/05 11:32:22;;;;;;;20.85;13.88;;;;;;;8.39;55.16;99260.41;5045185;28;20446;-68
2020/12/05 11:34:47;;;;;;;18.33;13.00;;;;;;;8.47;54.80;99267.28;5045939;28;20491;-68